Time;durP1;ratioP1;P1;durP2;ratioP2;P2;SDS_P1;SDS_P2;PMS_P1;PMS_P2;Temp;Humidity;BMP_temperature;BMP_pressure;BME280_temperature;BME280_humidity;BME280_pressure;Samples;Min_cycle;Max_cycle;Signal;HPM_P1;HPM_P2
2023/07/14 00:01:52;;;;;;;0.83;0.60;;;22.70;99.90;;;22.83;49.01;101387.28;4841350;28;98086;-46
2023/07/14 00:04:31;;;;;;;0.80;0.70;;;22.70;99.90;;;22.83;49.16;101385.44;4838631;28;97790;-46
2023/07/14 00:06:57;;;;;;;0.70;0.60;;;22.70;99.90;;;22.83;49.11;101376.53;4831161;28;97734;-44
2023/07/14 00:09:28;;;;;;;1.10;0.60;;;22.70;99.90;;;22.82;48.96;101383.75;4821305;28;98841;-48
2023/07/14 00:11:54;;;;;;;1.10;0.60;;;22.70;99.90;;;22.81;49.12;101379.31;4835391;28;97759;-45
2023/07/14 00:14:21;;;;;;;1.20;0.90;;;22.70;99.90;;;22.82;49.16;101383.75;4838942;28;97431;-44
2023/07/14 00:16:46;;;;;;;0.53;0.53;;;22.70;99.90;;;22.82;49.00;101370.28;4841598;28;117588;-46
2023/07/14 00:19:16;;;;;;;0.50;0.43;;;22.70;99.90;;;22.82;49.26;101375.66;4848750;28;111955;-47
2023/07/14 00:21:43;;;;;;;0.90;0.70;;;22.70;99.90;;;22.80;49.12;101369.53;4841218;28;104416;-45
2023/07/14 00:24:15;;;;;;;1.47;0.63;;;22.70;99.90;;;22.81;49.07;101363.16;4864033;28;97550;-44
2023/07/14 00:26:43;;;;;;;0.70;0.70;;;22.70;99.90;;;22.80;49.16;101366.81;4856290;28;97839;-43
2023/07/14 00:29:34;;;;;;;0.40;0.40;;;22.70;99.90;;;22.82;48.97;101359.53;4856896;28;98668;-45
2023/07/14 00:32:00;;;;;;;0.90;0.63;;;22.70;99.90;;;22.79;49.02;101359.75;4855697;28;100578;-44
2023/07/14 00:34:26;;;;;;;0.47;0.40;;;22.60;99.90;;;22.79;48.24;101370.50;4862900;28;106209;-44
2023/07/14 00:36:52;;;;;;;0.67;0.53;;;22.60;99.90;;;22.76;49.27;101364.50;4871297;28;98121;-43
2023/07/14 00:39:18;;;;;;;0.50;0.50;;;22.60;99.90;;;22.73;49.36;101354.84;4876719;28;120739;-45
2023/07/14 00:41:44;;;;;;;0.70;0.70;;;22.50;99.90;;;22.72;49.35;101358.50;4878167;28;115699;-44
2023/07/14 00:44:14;;;;;;;1.27;0.60;;;22.50;99.90;;;22.73;49.46;101353.97;4877605;28;106883;-53
2023/07/14 00:46:40;;;;;;;1.70;0.50;;;22.60;99.90;;;22.72;49.37;101353.13;4861533;28;97146;-43
2023/07/14 00:49:15;;;;;;;0.83;0.53;;;22.60;99.90;;;22.75;49.33;101352.88;4851884;28;101946;-43
2023/07/14 00:51:41;;;;;;;0.63;0.57;;;22.60;99.90;;;22.77;49.40;101360.84;4870127;28;100651;-44
2023/07/14 00:54:29;;;;;;;1.10;0.50;;;22.60;99.90;;;22.79;49.25;101348.97;4867843;28;98031;-46
2023/07/14 00:56:56;;;;;;;0.57;0.50;;;22.60;99.90;;;22.78;48.72;101354.47;4879074;28;97878;-50
2023/07/14 00:59:33;;;;;;;0.83;0.70;;;22.60;99.90;;;22.79;49.01;101353.50;4867503;28;97475;-43
2023/07/14 01:02:11;;;;;;;1.40;0.87;;;22.60;99.90;;;22.74;49.19;101367.31;4876546;28;101208;-45
2023/07/14 01:04:39;;;;;;;1.13;0.70;;;22.50;99.90;;;22.71;49.42;101362.16;4854802;28;97796;-45
2023/07/14 01:07:06;;;;;;;0.60;0.60;;;22.50;99.90;;;22.70;49.35;101367.63;4862659;28;97583;-46
2023/07/14 01:09:33;;;;;;;1.33;0.90;;;22.50;99.90;;;22.69;49.39;101356.03;4863456;28;97703;-45
2023/07/14 01:12:01;;;;;;;1.20;0.63;;;22.50;99.90;;;22.68;49.56;101357.00;4867728;28;97199;-43
2023/07/14 01:14:36;;;;;;;1.40;0.80;;;22.50;99.90;;;22.66;49.00;101348.19;4854136;28;97557;-44
2023/07/14 01:17:03;;;;;;;0.80;0.57;;;22.40;99.90;;;22.62;49.60;101352.09;4869404;28;97359;-43
2023/07/14 01:19:49;;;;;;;0.73;0.60;;;22.40;99.90;;;22.62;49.80;101362.84;4870792;28;99220;-43
2023/07/14 01:22:40;;;;;;;2.20;0.60;;;22.40;99.90;;;22.62;49.86;101357.47;4867542;28;102476;-44
2023/07/14 01:25:38;;;;;;;0.97;0.60;;;22.40;99.90;;;22.65;49.50;101356.38;4860367;28;97362;-47
2023/07/14 01:28:08;;;;;;;0.73;0.70;;;22.40;99.90;;;22.62;49.42;101357.47;4875574;28;97434;-44
2023/07/14 01:30:35;;;;;;;1.10;0.67;;;22.40;99.90;;;22.61;49.73;101355.75;4873194;28;99095;-44
2023/07/14 01:33:01;;;;;;;0.60;0.60;;;22.40;99.90;;;22.63;49.48;101366.41;4854821;28;97848;-43
2023/07/14 01:35:32;;;;;;;1.23;0.83;;;22.40;99.90;;;22.57;49.32;101359.66;4883626;28;97890;-44
2023/07/14 01:37:58;;;;;;;2.13;1.20;;;22.30;99.90;;;22.56;49.26;101363.28;4883941;28;97986;-44
2023/07/14 01:40:25;;;;;;;0.70;0.60;;;22.30;99.90;;;22.55;50.05;101364.25;4851980;28;109047;-46
2023/07/14 01:43:01;;;;;;;0.90;0.63;;;22.30;99.90;;;22.58;49.98;101365.91;4858395;28;97466;-44
2023/07/14 01:45:36;;;;;;;0.70;0.70;;;22.40;99.90;;;22.56;49.93;101349.84;4861737;28;97610;-45
2023/07/14 01:48:04;;;;;;;0.90;0.70;;;22.40;99.90;;;22.56;50.06;101356.09;4856335;28;97855;-47
2023/07/14 01:50:42;;;;;;;0.90;0.77;;;22.50;99.90;;;22.60;50.06;101348.66;4863123;28;98785;-43
2023/07/14 01:53:37;;;;;;;1.00;0.80;;;22.50;99.90;;;22.61;49.49;101353.06;4887388;28;100579;-43
2023/07/14 01:56:08;;;;;;;0.60;0.43;;;22.50;99.90;;;22.62;49.79;101352.09;4852654;28;97374;-42
2023/07/14 01:59:03;;;;;;;1.10;0.70;;;22.50;99.90;;;22.67;49.57;101365.19;4867810;28;98032;-43
2023/07/14 02:01:29;;;;;;;0.87;0.63;;;22.50;99.90;;;22.65;49.67;101351.00;4868172;28;100576;-43
2023/07/14 02:03:56;;;;;;;0.83;0.57;;;22.50;99.90;;;22.65;49.87;101357.22;4854934;28;101227;-43
2023/07/14 02:06:23;;;;;;;2.83;1.13;;;22.50;99.90;;;22.66;49.58;101350.88;4877811;28;97602;-42
2023/07/14 02:08:50;;;;;;;0.83;0.50;;;22.50;99.90;;;22.66;49.61;101353.56;4866374;28;100722;-45
2023/07/14 02:11:20;;;;;;;0.77;0.70;;;22.50;99.90;;;22.69;49.65;101355.16;4845995;28;99532;-46
2023/07/14 02:13:47;;;;;;;0.87;0.60;;;22.50;99.90;;;22.64;49.87;101344.75;4855703;28;102600;-45
2023/07/14 02:16:15;;;;;;;0.83;0.60;;;22.50;99.90;;;22.64;49.79;101342.06;4873948;28;97577;-45
2023/07/14 02:18:42;;;;;;;1.17;0.93;;;22.60;99.90;;;22.67;49.78;101341.84;4876326;28;97423;-51
2023/07/14 02:21:11;;;;;;;0.70;0.60;;;22.50;99.90;;;22.68;49.86;101340.88;4869374;28;97695;-44
2023/07/14 02:23:42;;;;;;;0.70;0.70;;;22.60;99.90;;;22.69;49.54;101339.03;4867336;28;99872;-43
2023/07/14 02:26:29;;;;;;;0.83;0.70;;;22.60;99.90;;;22.70;49.70;101338.06;4880148;28;97351;-44
2023/07/14 02:28:57;;;;;;;1.30;0.50;;;22.60;99.90;;;22.72;49.54;101336.13;4869081;28;98191;-45
2023/07/14 02:32:11;;;;;;;0.63;0.57;;;22.60;99.90;;;22.72;49.83;101342.38;4872445;28;97931;-45
2023/07/14 02:34:48;;;;;;;0.73;0.60;;;22.60;99.90;;;22.72;49.68;101342.38;4864368;28;102155;-45
2023/07/14 02:38:03;;;;;;;0.87;0.70;;;22.60;99.90;;;22.73;49.64;101348.59;4880952;28;97746;-51
2023/07/14 02:41:16;;;;;;;1.30;1.13;;;22.60;99.90;;;22.71;49.65;101346.03;4863797;28;97593;-43
2023/07/14 02:43:44;;;;;;;1.13;0.60;;;22.60;99.90;;;22.68;49.80;101340.00;4843853;28;103419;-43
2023/07/14 02:46:23;;;;;;;1.00;0.70;;;22.50;99.90;;;22.66;49.86;101342.81;4857311;28;102797;-43
2023/07/14 02:48:53;;;;;;;1.53;0.60;;;22.60;99.90;;;22.68;49.78;101343.56;4847722;28;97427;-43
2023/07/14 02:51:19;;;;;;;1.53;0.50;;;22.60;99.90;;;22.65;49.90;101341.09;4856532;28;97944;-45
2023/07/14 02:53:46;;;;;;;1.33;0.73;;;22.50;99.90;;;22.66;49.94;101342.81;4869999;28;97732;-44
2023/07/14 02:56:20;;;;;;;0.70;0.60;;;22.60;99.90;;;22.67;49.95;101349.03;4816852;28;101962;-43
2023/07/14 02:58:49;;;;;;;0.67;0.40;;;22.60;99.90;;;22.70;49.81;101343.44;4870337;28;97485;-47
2023/07/14 03:01:17;;;;;;;1.50;0.50;;;22.50;99.90;;;22.69;49.90;101336.34;4863381;28;97387;-44
2023/07/14 03:03:46;;;;;;;0.90;0.57;;;22.60;99.90;;;22.68;49.85;101338.16;4860877;28;102185;-44
2023/07/14 03:06:15;;;;;;;0.83;0.70;;;22.60;99.90;;;22.70;49.73;101325.47;4852836;28;100524;-43
2023/07/14 03:08:40;;;;;;;0.90;0.73;;;22.60;99.90;;;22.72;49.70;101333.44;4874883;28;97340;-47
2023/07/14 03:11:08;;;;;;;1.13;0.70;;;22.60;99.90;;;22.71;49.90;101329.91;4871304;28;97503;-43
2023/07/14 03:13:35;;;;;;;0.77;0.63;;;22.60;99.90;;;22.69;49.85;101331.81;4848189;28;113212;-45
2023/07/14 03:16:03;;;;;;;0.60;0.60;;;22.60;99.90;;;22.69;49.90;101331.81;4860951;28;98069;-44
2023/07/14 03:18:30;;;;;;;1.70;0.77;;;22.60;99.90;;;22.67;49.88;101328.41;4861499;28;97556;-42
2023/07/14 03:21:09;;;;;;;1.03;0.67;;;22.60;99.90;;;22.68;49.67;101335.47;4855008;28;98975;-46
2023/07/14 03:23:36;;;;;;;0.70;0.70;;;22.60;99.90;;;22.69;49.43;101330.97;4857020;28;99484;-43
2023/07/14 03:26:06;;;;;;;1.10;1.00;;;22.60;99.90;;;22.71;49.81;101329.00;4857753;28;98345;-43
2023/07/14 03:28:36;;;;;;;1.70;0.77;;;22.60;99.90;;;22.68;49.81;101330.09;4839776;28;98890;-44
2023/07/14 03:31:04;;;;;;;2.13;0.77;;;22.60;99.90;;;22.65;49.96;101330.34;4851332;28;97623;-44
2023/07/14 03:33:33;;;;;;;1.20;0.93;;;22.60;99.90;;;22.66;49.96;101326.69;4844171;28;98637;-43
2023/07/14 03:36:23;;;;;;;0.60;0.60;;;22.60;99.90;;;22.68;49.90;101323.88;4841154;28;97679;-42
2023/07/14 03:39:26;;;;;;;1.23;0.83;;;22.60;99.90;;;22.67;49.99;101323.00;4877114;28;97541;-47
2023/07/14 03:41:54;;;;;;;0.90;0.80;;;22.60;99.90;;;22.64;50.03;101328.63;4877878;28;99824;-46
2023/07/14 03:44:21;;;;;;;1.20;0.73;;;22.50;99.90;;;22.66;49.97;101326.69;4864937;28;98859;-43
2023/07/14 03:46:47;;;;;;;1.77;1.00;;;22.60;99.90;;;22.63;49.95;101329.59;4868683;28;100649;-44
2023/07/14 03:49:14;;;;;;;0.87;0.70;;;22.50;99.90;;;22.62;50.02;101330.59;4880269;28;97749;-46
2023/07/14 03:51:41;;;;;;;0.97;0.70;;;22.50;99.90;;;22.62;50.03;101322.53;4867985;28;97254;-43
2023/07/14 03:54:10;;;;;;;1.20;0.80;;;22.50;99.90;;;22.64;50.02;101322.41;4866738;28;103219;-44
2023/07/14 03:56:36;;;;;;;1.10;0.70;;;22.50;99.90;;;22.67;50.05;101323.00;4875937;28;97584;-43
2023/07/14 04:04:20;;;;;;;1.27;1.17;;;22.50;99.90;;;22.63;49.90;101321.53;5119108;22;98717;-47
2023/07/14 04:06:46;;;;;;;1.07;0.97;;;22.50;99.90;;;22.63;49.91;101321.53;4893186;28;101656;-45
2023/07/14 04:09:12;;;;;;;1.53;0.80;;;22.50;99.90;;;22.62;49.75;101311.75;4920985;28;97067;-41
2023/07/14 04:11:38;;;;;;;0.80;0.80;;;22.50;99.90;;;22.63;50.17;101318.00;4912433;28;108666;-43
2023/07/14 04:14:06;;;;;;;1.20;0.80;;;22.50;99.90;;;22.66;49.90;101317.75;4911677;28;110889;-44
2023/07/14 04:16:33;;;;;;;0.97;0.77;;;22.50;99.90;;;22.59;50.16;101322.75;4908628;28;97221;-42
2023/07/14 04:18:59;;;;;;;0.70;0.60;;;22.50;99.90;;;22.61;50.17;101323.50;4913589;28;97646;-44
2023/07/14 04:21:25;;;;;;;0.93;0.60;;;22.50;99.90;;;22.62;50.00;101317.13;4910526;28;97689;-41
2023/07/14 04:23:52;;;;;;;1.13;0.77;;;22.50;99.90;;;22.61;50.15;101318.13;4905192;28;97580;-43
2023/07/14 04:26:18;;;;;;;1.10;0.73;;;22.50;99.90;;;22.60;50.21;101321.78;4914261;28;101629;-42
2023/07/14 04:28:44;;;;;;;0.50;0.50;;;22.50;99.90;;;22.57;50.29;101316.63;4907097;28;97304;-43
2023/07/14 04:31:10;;;;;;;0.70;0.70;;;22.50;99.90;;;22.61;50.06;101311.88;4903636;28;105911;-44
2023/07/14 04:33:36;;;;;;;0.70;0.70;;;22.50;99.90;;;22.65;49.93;101314.22;4910961;28;97890;-42
2023/07/14 04:36:01;;;;;;;1.80;1.00;;;22.50;99.90;;;22.65;49.96;101314.22;4914533;28;109727;-42
2023/07/14 04:38:28;;;;;;;1.37;0.80;;;22.60;99.90;;;22.64;49.98;101309.81;4901579;28;105019;-42
2023/07/14 04:40:54;;;;;;;0.90;0.90;;;22.60;99.90;;;22.66;50.00;101309.69;4905933;28;97530;-42
2023/07/14 04:43:20;;;;;;;1.00;0.80;;;22.60;99.90;;;22.64;50.11;101315.19;4917940;28;114345;-42
2023/07/14 04:45:46;;;;;;;2.17;0.90;;;22.60;99.90;;;22.66;50.17;101321.31;4914068;28;97446;-44
2023/07/14 04:48:16;;;;;;;0.80;0.80;;;22.60;99.90;;;22.67;49.67;101323.00;4907663;28;98470;-43
2023/07/14 04:50:45;;;;;;;1.53;0.80;;;22.50;99.90;;;22.63;50.10;101321.53;4902045;28;97791;-43
2023/07/14 04:53:13;;;;;;;0.90;0.80;;;22.40;99.90;;;22.60;50.15;101319.09;4906923;28;98604;-42
2023/07/14 04:55:41;;;;;;;0.57;0.50;;;22.50;99.90;;;22.61;50.12;101318.13;4911952;28;97801;-44
2023/07/14 04:58:11;;;;;;;1.20;0.57;;;22.50;99.90;;;22.62;50.12;101319.84;4908558;28;98116;-43
2023/07/14 05:00:39;;;;;;;2.23;0.90;;;22.50;99.90;;;22.60;50.30;101316.41;4909358;28;97558;-42
2023/07/14 05:03:06;;;;;;;1.07;0.80;;;22.50;99.90;;;22.55;50.42;101318.56;4906399;28;97535;-43
2023/07/14 05:05:32;;;;;;;1.00;0.73;;;22.50;99.90;;;22.58;50.08;101307.59;4907330;28;97468;-43
2023/07/14 05:08:00;;;;;;;1.57;1.10;;;22.50;99.90;;;22.59;50.35;101309.31;4908497;28;99261;-42
2023/07/14 05:10:28;;;;;;;1.70;0.80;;;22.50;99.90;;;22.60;50.16;101304.78;4908004;28;97356;-43
2023/07/14 05:12:56;;;;;;;1.23;0.93;;;22.50;99.90;;;22.58;50.31;101302.22;4907483;28;101785;-43
2023/07/14 05:15:24;;;;;;;0.60;0.60;;;22.50;99.90;;;22.56;50.42;101290.69;4905658;28;130172;-45
2023/07/14 05:17:52;;;;;;;1.47;0.80;;;22.50;99.90;;;22.58;50.25;101291.47;4907230;28;98606;-42
2023/07/14 05:20:20;;;;;;;1.33;0.73;;;22.50;99.90;;;22.60;50.30;101296.72;4921126;28;97477;-42
2023/07/14 05:22:52;;;;;;;0.80;0.57;;;22.50;99.90;;;22.59;50.39;101298.56;4919099;28;97486;-41
2023/07/14 05:25:19;;;;;;;1.17;0.70;;;22.50;99.90;;;22.61;50.25;101296.59;4921915;28;103161;-42
2023/07/14 05:27:46;;;;;;;0.90;0.90;;;22.50;99.90;;;22.63;50.27;101296.50;4910378;28;97639;-42
2023/07/14 05:30:17;;;;;;;1.17;1.03;;;22.50;99.90;;;22.61;50.31;101301.97;4906543;28;97706;-42
2023/07/14 05:32:45;;;;;;;0.70;0.70;;;22.50;99.90;;;22.59;50.30;101298.56;4910853;28;97290;-44
2023/07/14 05:35:11;;;;;;;0.50;0.50;;;22.50;99.90;;;22.53;50.52;101299.00;4908455;28;98577;-44
2023/07/14 05:37:38;;;;;;;0.93;0.73;;;22.50;99.90;;;22.55;50.49;101297.06;4902895;28;97332;-42
2023/07/14 05:40:07;;;;;;;2.07;0.90;;;22.50;99.90;;;22.54;49.64;101295.34;4900361;28;97368;-42
2023/07/14 05:42:33;;;;;;;0.60;0.60;;;22.50;99.90;;;22.54;50.44;101289.97;4914739;28;98670;-42
2023/07/14 05:44:58;;;;;;;1.50;0.67;;;22.50;99.90;;;22.59;50.03;101293.19;4908413;28;97324;-42
2023/07/14 05:47:24;;;;;;;4.20;1.83;;;22.50;99.90;;;22.55;48.30;101297.91;4912109;28;97126;-46
2023/07/14 05:49:51;;;;;;;2.10;1.27;;;22.40;99.90;;;22.49;48.90;101292.16;4915833;28;113028;-41
2023/07/14 05:52:17;;;;;;;1.53;1.20;;;22.30;99.90;;;22.42;50.24;101296.25;4908831;28;97576;-42
2023/07/14 05:54:47;;;;;;;2.37;1.27;;;22.20;99.90;;;22.41;50.76;101299.91;4915776;28;98308;-41
2023/07/14 05:57:13;;;;;;;1.10;1.00;;;22.20;99.90;;;22.45;50.51;101291.53;4908999;28;96862;-42
2023/07/14 05:59:39;;;;;;;1.30;0.80;;;22.30;99.90;;;22.46;50.63;101297.78;4911771;28;97539;-41
2023/07/14 06:02:13;;;;;;;0.73;0.73;;;22.30;99.90;;;22.50;50.50;101299.25;4899460;28;99646;-44
2023/07/14 06:04:40;;;;;;;1.87;1.27;;;22.40;99.90;;;22.52;49.60;101291.91;4901862;28;99365;-42
2023/07/14 06:07:06;;;;;;;1.10;0.80;;;22.40;99.90;;;22.53;50.19;101301.69;4908310;28;98788;-41
2023/07/14 06:09:34;;;;;;;1.70;0.80;;;22.40;99.90;;;22.52;50.20;101297.28;4921969;28;97839;-43
2023/07/14 06:12:02;;;;;;;1.43;1.07;;;22.40;99.90;;;22.48;49.47;101296.69;4918289;28;97000;-43
2023/07/14 06:14:28;;;;;;;2.03;1.23;;;22.30;99.90;;;22.34;49.18;101301.38;4905267;28;101659;-42
2023/07/14 06:16:53;;;;;;;1.10;0.90;;;22.10;99.90;;;22.31;50.96;101304.28;4908974;28;97343;-46
2023/07/14 06:19:20;;;;;;;2.03;1.07;;;22.10;99.90;;;22.36;50.77;101296.75;4912394;28;99146;-42
2023/07/14 06:21:45;;;;;;;2.10;0.97;;;22.20;99.90;;;22.41;50.90;101289.19;4904526;28;97402;-44
2023/07/14 06:24:11;;;;;;;0.73;0.67;;;22.30;99.90;;;22.42;50.84;101293.56;4909041;28;122724;-45
2023/07/14 06:26:37;;;;;;;1.87;1.20;;;22.30;99.90;;;22.42;49.27;101288.19;4908315;28;118262;-44
2023/07/14 06:29:03;;;;;;;1.33;1.00;;;22.30;99.90;;;22.39;50.55;101283.06;4905186;28;116001;-43
2023/07/14 06:31:28;;;;;;;3.43;1.40;;;22.20;99.90;;;22.40;50.39;101284.78;4903580;28;127502;-43
2023/07/14 06:33:54;;;;;;;1.90;0.80;;;22.20;99.90;;;22.39;51.01;101280.38;4907329;28;119504;-42
2023/07/14 06:36:20;;;;;;;1.53;0.80;;;22.20;99.90;;;22.43;50.46;101271.97;4907389;28;98570;-42
2023/07/14 06:38:46;;;;;;;1.33;1.00;;;22.30;99.90;;;22.49;50.62;101270.66;4907174;28;105821;-43
2023/07/14 06:41:11;;;;;;;1.00;0.80;;;22.30;99.90;;;22.48;50.53;101263.56;4908411;28;115870;-44
2023/07/14 06:43:37;;;;;;;3.50;1.60;;;22.30;99.90;;;22.51;49.90;101258.81;4903697;28;98544;-45
2023/07/14 06:46:03;;;;;;;2.60;1.27;;;22.40;99.90;;;22.52;49.74;101254.28;4908749;28;97268;-46
2023/07/14 06:48:30;;;;;;;3.80;1.30;;;22.30;99.90;;;22.52;49.10;101259.66;4914838;28;97688;-44
2023/07/14 06:50:56;;;;;;;2.67;1.10;;;22.30;99.90;;;22.53;49.82;101267.59;4908300;28;97451;-42
2023/07/14 06:53:23;;;;;;;3.03;1.47;;;22.30;99.90;;;22.45;48.72;101263.81;4913983;28;115257;-41
2023/07/14 06:55:49;;;;;;;1.10;0.80;;;22.20;99.90;;;22.41;50.94;101257.78;4910789;28;100031;-44
2023/07/14 06:58:15;;;;;;;0.80;0.73;;;22.20;99.90;;;22.39;50.79;101257.03;4913067;28;97540;-44
2023/07/14 07:00:40;;;;;;;1.47;1.03;;;22.30;99.90;;;22.48;49.20;101250.97;4910756;28;97715;-42
2023/07/14 07:03:06;;;;;;;1.77;0.93;;;22.30;99.90;;;22.50;48.91;101245.47;4905224;28;114847;-41
2023/07/14 07:05:40;;;;;;;1.17;0.83;;;22.30;99.90;;;22.50;50.59;101256.22;4914168;28;96663;-44
2023/07/14 07:08:11;;;;;;;0.80;0.70;;;22.30;99.90;;;22.49;50.37;101243.78;4911652;28;97205;-43
2023/07/14 07:10:36;;;;;;;1.70;0.80;;;22.40;99.90;;;22.48;50.69;101247.44;4911080;28;97994;-46
2023/07/14 07:13:03;;;;;;;1.70;0.73;;;22.40;99.90;;;22.45;50.47;101239.59;4910955;28;97412;-43
2023/07/14 07:15:29;;;;;;;1.70;0.70;;;22.40;99.90;;;22.51;50.54;101236.44;4904143;28;97440;-45
2023/07/14 07:17:54;;;;;;;0.90;0.67;;;22.50;99.90;;;22.50;50.56;101237.41;4906802;28;107930;-45
2023/07/14 07:20:20;;;;;;;0.50;0.50;;;22.50;99.90;;;22.56;50.57;101234.25;4914228;28;124377;-42
2023/07/14 07:22:48;;;;;;;1.20;0.63;;;22.50;99.90;;;22.61;49.69;101237.47;4910107;28;100563;-42
2023/07/14 07:25:16;;;;;;;0.87;0.60;;;22.60;99.90;;;22.65;50.13;101230.00;4912957;28;97313;-43
2023/07/14 07:27:42;;;;;;;2.00;1.37;;;22.60;99.90;;;22.70;48.36;101225.13;4914156;28;97199;-43
2023/07/14 07:30:09;;;;;;;5.17;1.63;;;22.60;99.90;;;22.70;47.89;101230.50;4914217;28;97776;-43
2023/07/14 07:32:36;;;;;;;1.57;0.80;;;22.50;99.90;;;22.68;49.66;101227.94;4901731;28;98876;-43
2023/07/14 07:35:03;;;;;;;8.13;1.80;;;22.50;99.90;;;22.67;48.39;101226.22;4911322;28;97395;-42
2023/07/14 07:37:34;;;;;;;1.50;0.67;;;22.50;99.90;;;22.67;49.98;101219.97;4914058;28;98314;-43
2023/07/14 07:40:02;;;;;;;4.43;1.17;;;22.50;99.90;;;22.72;49.48;101229.44;4907316;28;101464;-41
2023/07/14 07:42:28;;;;;;;2.73;1.23;;;22.60;99.90;;;22.75;48.18;101212.19;4911081;28;103499;-43
2023/07/14 07:44:54;;;;;;;1.77;1.00;;;22.60;99.90;;;22.69;49.83;101213.50;4913899;28;106597;-42
2023/07/14 07:47:20;;;;;;;1.83;1.20;;;22.60;99.90;;;22.73;48.86;101209.63;4906664;28;110639;-42
2023/07/14 07:49:46;;;;;;;2.17;1.10;;;22.60;99.90;;;22.76;49.54;101217.44;4903378;28;127732;-44
2023/07/14 07:52:13;;;;;;;1.10;0.70;;;22.70;99.90;;;22.68;50.04;101206.41;4906118;28;98270;-45
2023/07/14 07:54:39;;;;;;;2.23;0.70;;;22.70;99.90;;;22.75;49.55;101206.81;4916993;28;105647;-44
2023/07/14 07:57:08;;;;;;;1.47;0.83;;;22.70;99.90;;;22.75;49.03;101207.66;4919086;28;106899;-45
2023/07/14 07:59:33;;;;;;;2.43;0.90;;;22.70;99.90;;;22.75;48.85;101204.97;4842388;28;101713;-42
2023/07/14 08:02:00;;;;;;;0.77;0.70;;;22.70;99.90;;;22.78;49.45;101206.56;4905343;28;118399;-42
2023/07/14 08:04:26;;;;;;;1.60;0.97;;;22.70;99.90;;;22.74;49.52;101200.56;4916346;28;97486;-43
2023/07/14 08:06:52;;;;;;;2.00;0.67;;;22.70;99.90;;;22.66;50.10;101189.56;4908065;28;99183;-44
2023/07/14 08:09:20;;;;;;;0.93;0.70;;;22.60;99.90;;;22.68;50.16;101194.81;4918088;28;98108;-43
2023/07/14 08:11:46;;;;;;;1.10;0.70;;;22.60;99.90;;;22.63;50.14;101187.09;4908573;28;97226;-44
2023/07/14 08:14:15;;;;;;;1.40;0.70;;;22.70;99.90;;;22.64;50.21;101180.75;4909771;28;97553;-45
2023/07/14 08:16:41;;;;;;;1.17;1.00;;;22.60;99.90;;;22.62;50.26;101174.66;4903861;28;97842;-47
2023/07/14 08:19:07;;;;;;;1.17;1.00;;;22.70;99.90;;;22.72;47.96;101180.16;4917925;28;99087;-54
2023/07/14 08:21:37;;;;;;;1.43;1.10;;;22.70;99.90;;;22.79;47.81;101176.84;4907677;28;100358;-45
2023/07/14 08:24:05;;;;;;;3.97;0.80;;;22.70;99.90;;;22.73;49.57;101179.19;4915688;28;97734;-42
2023/07/14 08:26:36;;;;;;;3.03;0.90;;;22.70;99.90;;;22.71;49.90;101176.63;4910981;28;97371;-43
2023/07/14 08:29:04;;;;;;;1.90;1.10;;;22.70;99.90;;;22.58;49.68;101178.56;4907141;28;97522;-42
2023/07/14 08:31:30;;;;;;;1.13;0.90;;;22.70;99.90;;;22.65;50.20;101169.03;4908138;28;97840;-42
2023/07/14 08:33:56;;;;;;;3.87;0.90;;;22.60;99.90;;;22.72;49.82;101170.28;4906650;28;97732;-42
2023/07/14 08:36:23;;;;;;;1.60;1.30;;;22.70;99.90;;;22.71;47.70;101179.31;4916426;28;97489;-43
2023/07/14 08:38:48;;;;;;;2.03;0.80;;;22.70;99.90;;;22.82;47.86;101176.66;4927835;28;97908;-46
2023/07/14 08:41:35;;;;;;;2.80;1.00;;;22.80;99.90;;;22.90;48.76;101167.13;4901055;28;98193;-42
2023/07/14 08:44:38;;;;;;;1.13;0.80;;;22.80;99.90;;;22.88;49.22;101164.56;4905435;28;97229;-43
2023/07/14 08:47:44;;;;;;;0.90;0.80;;;22.80;99.90;;;22.79;49.36;101166.09;4907668;28;97236;-45
2023/07/14 08:50:21;;;;;;;1.60;0.70;;;22.80;99.90;;;22.73;49.92;101163.91;4928470;28;104289;-42
2023/07/14 08:52:49;;;;;;;1.40;1.00;;;22.80;99.90;;;22.87;47.99;101164.69;4907681;28;100756;-43
2023/07/14 08:55:21;;;;;;;1.20;1.00;;;22.80;99.90;;;22.97;46.31;101158.44;4913256;28;97388;-47
2023/07/14 08:57:59;;;;;;;0.97;0.67;;;22.90;99.90;;;22.89;47.31;101150.13;4903694;28;97477;-42
2023/07/14 09:00:39;;;;;;;1.10;0.87;;;22.90;99.90;;;22.99;47.54;101150.25;4907690;28;97689;-42
2023/07/14 09:03:28;;;;;;;1.47;0.93;;;22.90;99.90;;;23.02;46.67;101144.63;4906614;28;107862;-43
2023/07/14 09:06:01;;;;;;;1.77;1.20;;;23.00;99.90;;;22.98;48.51;101153.91;4910066;28;97464;-43
2023/07/14 09:08:29;;;;;;;1.40;0.83;;;23.00;99.90;;;22.90;48.96;101145.63;4908289;28;97438;-44
2023/07/14 09:10:59;;;;;;;1.60;0.77;;;22.90;99.90;;;22.85;49.56;101146.81;4904987;28;99197;-42
2023/07/14 09:13:50;;;;;;;1.10;0.70;;;22.90;99.90;;;22.84;49.48;101138.88;4906267;28;97768;-48
2023/07/14 09:16:19;;;;;;;1.70;1.00;;;22.90;99.90;;;22.82;48.40;101133.63;4904671;28;97209;-42
2023/07/14 09:19:14;;;;;;;2.93;1.00;;;22.80;99.90;;;23.02;44.86;101144.63;4909608;28;97324;-48
2023/07/14 09:21:49;;;;;;;2.00;0.80;;;23.00;99.90;;;23.15;46.06;101134.59;4859826;28;102964;-43
2023/07/14 09:24:47;;;;;;;0.80;0.60;;;23.10;99.90;;;23.19;46.67;101138.75;4906412;28;100783;-42
2023/07/14 09:27:23;;;;;;;1.33;0.73;;;23.10;99.90;;;23.18;46.82;101134.34;4895589;28;97240;-44
2023/07/14 09:29:50;;;;;;;2.10;0.97;;;23.20;99.90;;;23.20;47.15;101140.47;4902916;28;97541;-43
2023/07/14 09:32:34;;;;;;;0.90;0.63;;;23.20;99.90;;;23.27;47.00;101141.66;4908479;28;97863;-45
2023/07/14 09:35:17;;;;;;;0.83;0.60;;;23.20;99.90;;;23.25;47.34;101130.16;4836679;28;97853;-44
2023/07/14 09:37:54;;;;;;;1.63;0.80;;;23.30;99.90;;;23.18;47.31;101134.34;4916191;28;96879;-48
2023/07/14 09:40:31;;;;;;;1.53;1.03;;;23.20;99.90;;;23.22;45.51;101133.09;4872454;28;97787;-43
2023/07/14 09:42:59;;;;;;;5.13;0.90;;;23.20;99.90;;;23.32;44.83;101131.38;4917024;28;99519;-43
2023/07/14 09:45:32;;;;;;;1.53;0.97;;;23.30;99.90;;;23.50;43.26;101134.41;4929935;28;97413;-44
2023/07/14 09:48:01;;;;;;;1.57;1.00;;;23.50;99.90;;;23.37;46.68;101117.53;4923770;28;96913;-43
2023/07/14 09:50:35;;;;;;;1.00;0.70;;;23.50;99.90;;;23.53;43.42;101122.50;4920125;28;105649;-43
2023/07/14 09:53:07;;;;;;;1.77;1.00;;;23.50;99.90;;;23.59;44.95;101117.53;4923284;28;97885;-45
2023/07/14 09:56:00;;;;;;;1.40;0.83;;;23.60;99.90;;;23.45;46.19;101105.19;4912305;28;104074;-44
2023/07/14 09:58:30;;;;;;;2.67;0.80;;;23.50;99.90;;;23.53;44.15;101112.59;4923578;28;97356;-43
2023/07/14 10:00:59;;;;;;;1.37;1.13;;;23.50;99.90;;;23.52;46.51;101099.28;4923475;28;97234;-44
2023/07/14 10:03:31;;;;;;;1.90;1.00;;;23.60;99.90;;;23.60;45.81;101096.84;4917488;28;97193;-45
2023/07/14 10:06:22;;;;;;;1.92;0.90;;;23.60;99.90;;;23.63;45.33;101096.56;4922606;28;97276;-44
2023/07/14 10:08:59;;;;;;;1.15;0.80;;;23.70;99.90;;;23.72;45.27;101101.19;4918512;28;97345;-45
2023/07/14 10:11:27;;;;;;;0.98;0.85;;;23.80;99.90;;;23.67;45.44;101089.94;4923238;28;96987;-43
2023/07/14 10:14:06;;;;;;;2.08;0.93;;;23.70;99.90;;;23.86;42.79;101087.41;4925067;28;97564;-42
2023/07/14 10:16:40;;;;;;;1.85;0.82;;;23.90;99.70;;;23.99;42.09;101079.97;4925427;28;97554;-43
2023/07/14 10:19:15;;;;;;;0.98;0.80;;;24.00;99.00;;;24.07;42.02;101078.50;4918461;28;97402;-44
2023/07/14 10:21:57;;;;;;;0.93;0.80;;;24.10;98.80;;;24.04;44.09;101063.44;4921770;28;96948;-47
2023/07/14 10:24:24;;;;;;;6.28;1.10;;;24.10;99.70;;;23.91;44.38;101071.72;4917958;28;103541;-44
2023/07/14 10:27:02;;;;;;;1.00;0.80;;;24.00;99.90;;;23.86;44.70;101071.25;4925145;28;97207;-44
2023/07/14 10:29:51;;;;;;;3.00;1.10;;;23.90;99.90;;;23.97;43.16;101068.50;4918362;28;97437;-43
2023/07/14 10:32:42;;;;;;;1.85;0.90;;;24.00;99.70;;;24.06;41.44;101071.41;4917048;28;97291;-43